Time;durP1;ratioP1;P1;durP2;ratioP2;P2;SDS_P1;SDS_P2;PMS_P1;PMS_P2;Temp;Humidity;BMP_temperature;BMP_pressure;BME280_temperature;BME280_humidity;BME280_pressure;Samples;Min_cycle;Max_cycle;Signal;HPM_P1;HPM_P2
2023/06/27 00:00:46;;;;;;;5.10;2.47;;;21.70;75.70;;;;;;5012731;28;20192;-67
2023/06/27 00:03:12;;;;;;;4.50;2.33;;;21.60;75.60;;;;;;5012387;28;20255;-68
2023/06/27 00:05:38;;;;;;;7.07;2.50;;;21.50;75.70;;;;;;5014203;28;20175;-67
2023/06/27 00:08:06;;;;;;;3.50;2.17;;;21.60;75.80;;;;;;5015538;28;20179;-67
2023/06/27 00:10:33;;;;;;;4.73;2.27;;;21.60;75.70;;;;;;5016030;28;20410;-67
2023/06/27 00:12:58;;;;;;;6.23;2.20;;;21.70;75.40;;;;;;5014539;28;20713;-68
2023/06/27 00:15:26;;;;;;;3.40;2.10;;;21.70;75.20;;;;;;5015861;28;20410;-68
2023/06/27 00:17:53;;;;;;;3.87;2.20;;;21.40;76.10;;;;;;5015675;28;20690;-67
2023/06/27 00:20:19;;;;;;;4.87;2.10;;;21.40;76.20;;;;;;5015827;28;20403;-68
2023/06/27 00:22:46;;;;;;;3.90;2.40;;;21.50;76.30;;;;;;5015357;28;20418;-68
2023/06/27 00:25:11;;;;;;;2.93;2.27;;;21.60;76.20;;;;;;5015342;28;20179;-67
2023/06/27 00:27:37;;;;;;;4.17;2.40;;;21.80;75.90;;;;;;5015625;28;20403;-68
2023/06/27 00:30:03;;;;;;;2.37;2.00;;;21.60;76.30;;;;;;5015853;28;20164;-67
2023/06/27 00:32:29;;;;;;;2.93;2.10;;;21.50;76.60;;;;;;5015644;28;20429;-68
2023/06/27 00:34:55;;;;;;;4.53;2.47;;;21.50;76.90;;;;;;5016814;28;20422;-67
2023/06/27 00:37:20;;;;;;;3.33;2.23;;;21.50;77.10;;;;;;5015929;28;20168;-67
2023/06/27 00:39:46;;;;;;;3.53;2.10;;;21.40;77.20;;;;;;5015612;28;20201;-68
2023/06/27 00:42:11;;;;;;;3.20;2.30;;;21.40;77.30;;;;;;5015415;28;20774;-68
2023/06/27 00:44:37;;;;;;;2.80;1.97;;;21.60;77.20;;;;;;5015520;28;20171;-67
2023/06/27 00:47:03;;;;;;;4.80;2.20;;;21.50;77.10;;;;;;5015445;28;20164;-67
2023/06/27 00:49:29;;;;;;;4.67;2.73;;;21.60;77.00;;;;;;5015613;28;20168;-68
2023/06/27 00:51:55;;;;;;;5.80;2.67;;;21.50;77.30;;;;;;5014645;28;20457;-68
2023/06/27 00:54:22;;;;;;;4.07;2.27;;;21.50;77.70;;;;;;5015068;28;20172;-68
2023/06/27 00:56:52;;;;;;;2.83;2.17;;;21.50;77.50;;;;;;5015257;28;20883;-68
2023/06/27 00:59:18;;;;;;;2.50;2.03;;;21.50;77.40;;;;;;5015394;28;20459;-67
2023/06/27 01:01:45;;;;;;;7.43;2.50;;;21.60;77.30;;;;;;5015318;28;20430;-68
2023/06/27 01:04:11;;;;;;;7.47;2.40;;;21.70;77.20;;;;;;5030620;28;20168;-68
2023/06/27 01:06:49;;;;;;;3.17;2.07;;;21.60;77.50;;;;;;5015453;28;20406;-68
2023/06/27 01:09:27;;;;;;;3.13;2.13;;;21.70;77.40;;;;;;5015396;28;20198;-67
2023/06/27 01:12:04;;;;;;;4.93;2.10;;;21.60;77.30;;;;;;5015401;28;20426;-66
2023/06/27 01:14:33;;;;;;;4.43;2.33;;;21.70;77.60;;;;;;5015254;28;20383;-68
2023/06/27 01:17:00;;;;;;;3.33;2.30;;;21.40;77.70;;;;;;5015339;28;20407;-68
2023/06/27 01:19:29;;;;;;;3.13;2.40;;;21.20;78.40;;;;;;5015832;28;20451;-67
2023/06/27 01:22:02;;;;;;;4.00;2.00;;;21.20;78.80;;;;;;5015005;28;20419;-68
2023/06/27 01:24:29;;;;;;;4.13;2.07;;;21.30;78.50;;;;;;5015327;28;20403;-68
2023/06/27 01:26:55;;;;;;;4.43;2.33;;;21.40;78.50;;;;;;5014802;28;20438;-67
2023/06/27 01:29:20;;;;;;;6.27;2.47;;;21.30;78.80;;;;;;5015157;28;20503;-67
2023/06/27 01:31:57;;;;;;;3.67;2.33;;;21.40;78.50;;;;;;5014920;28;20423;-68
2023/06/27 01:34:23;;;;;;;3.93;2.50;;;21.40;78.20;;;;;;5015117;28;20586;-68
2023/06/27 01:36:53;;;;;;;4.93;2.53;;;21.30;79.10;;;;;;5014685;28;20438;-68
2023/06/27 01:39:25;;;;;;;3.90;2.40;;;21.30;78.90;;;;;;5013793;28;20182;-68
2023/06/27 01:41:55;;;;;;;5.70;2.77;;;21.20;78.90;;;;;;5014347;28;20419;-67
2023/06/27 01:44:23;;;;;;;4.37;2.63;;;21.10;79.70;;;;;;5014334;28;20403;-68
2023/06/27 01:46:51;;;;;;;6.80;2.50;;;21.10;79.60;;;;;;5016735;28;20782;-68
2023/06/27 01:49:17;;;;;;;3.93;1.93;;;21.30;79.40;;;;;;5014234;28;20464;-68
2023/06/27 01:51:43;;;;;;;3.87;1.93;;;21.30;79.40;;;;;;5014153;28;20447;-68
2023/06/27 01:54:08;;;;;;;4.40;2.37;;;21.30;79.60;;;;;;5013604;28;20498;-68
2023/06/27 01:56:34;;;;;;;6.27;2.47;;;21.30;79.30;;;;;;5014230;28;20992;-67
2023/06/27 01:59:01;;;;;;;4.07;2.23;;;21.30;79.80;;;;;;5014240;28;20192;-68
2023/06/27 02:01:26;;;;;;;4.13;2.20;;;21.20;79.40;;;;;;5014019;28;20223;-68
2023/06/27 02:03:52;;;;;;;9.93;3.03;;;21.20;79.60;;;;;;5013786;28;20875;-67
2023/06/27 02:06:18;;;;;;;2.43;2.00;;;21.30;79.50;;;;;;5013684;28;20594;-68
2023/06/27 02:08:43;;;;;;;3.03;1.97;;;21.20;79.90;;;;;;5013187;28;20263;-68
2023/06/27 02:11:09;;;;;;;5.70;1.90;;;21.20;79.60;;;;;;5013801;28;20195;-68
2023/06/27 02:13:36;;;;;;;3.80;2.73;;;21.40;79.80;;;;;;5013637;28;20218;-68
2023/06/27 02:16:02;;;;;;;6.93;2.23;;;21.30;79.70;;;;;;5013875;28;20547;-68
2023/06/27 02:18:28;;;;;;;4.47;2.90;;;21.40;79.70;;;;;;5013484;28;20449;-67
2023/06/27 02:20:53;;;;;;;4.40;2.90;;;21.30;79.70;;;;;;5028653;28;20195;-68
2023/06/27 02:23:19;;;;;;;4.43;2.50;;;21.20;79.80;;;;;;5013118;28;20259;-68
2023/06/27 02:25:44;;;;;;;6.37;2.60;;;21.00;80.70;;;;;;5013586;28;20627;-68
2023/06/27 02:28:10;;;;;;;5.70;2.63;;;21.00;81.20;;;;;;5012834;28;20179;-67
2023/06/27 02:30:35;;;;;;;4.57;2.50;;;21.10;80.90;;;;;;5013630;28;20214;-67
2023/06/27 02:33:01;;;;;;;2.90;2.27;;;21.00;81.20;;;;;;5013420;28;20276;-66
2023/06/27 02:35:26;;;;;;;3.47;2.50;;;21.10;81.00;;;;;;5013336;28;20203;-68
2023/06/27 02:37:52;;;;;;;4.60;2.20;;;20.90;81.10;;;;;;5028283;28;20278;-68
2023/06/27 02:40:18;;;;;;;4.73;1.90;;;20.80;81.50;;;;;;5033330;28;20171;-68
2023/06/27 02:42:43;;;;;;;3.50;1.90;;;20.90;82.00;;;;;;5032810;28;20171;-68
2023/06/27 02:45:09;;;;;;;5.17;2.50;;;21.10;81.40;;;;;;5032808;28;20249;-68
2023/06/27 02:47:35;;;;;;;3.87;2.27;;;21.10;81.80;;;;;;5032713;28;20239;-68
2023/06/27 02:50:00;;;;;;;4.40;1.97;;;21.00;81.10;;;;;;5032741;28;20417;-68
2023/06/27 02:52:26;;;;;;;4.27;2.27;;;21.00;81.40;;;;;;5028850;28;20297;-68
2023/06/27 02:54:52;;;;;;;4.53;2.53;;;20.90;81.50;;;;;;5012909;28;20164;-67
2023/06/27 02:57:18;;;;;;;6.33;1.90;;;20.90;81.80;;;;;;5012678;28;20660;-67
2023/06/27 02:59:43;;;;;;;4.10;2.30;;;20.80;82.00;;;;;;5012910;28;20446;-68
2023/06/27 03:02:09;;;;;;;7.43;2.40;;;20.70;82.20;;;;;;5012894;28;20215;-68
2023/06/27 03:04:36;;;;;;;3.47;1.93;;;20.80;82.10;;;;;;5012831;28;20626;-68
2023/06/27 03:07:02;;;;;;;3.00;1.83;;;20.60;82.50;;;;;;5012588;28;20178;-68
2023/06/27 03:09:27;;;;;;;3.63;2.30;;;20.60;82.40;;;;;;5012532;28;20418;-68
2023/06/27 03:11:53;;;;;;;2.60;2.03;;;20.60;82.30;;;;;;5012699;28;20196;-67
2023/06/27 03:14:19;;;;;;;1.93;1.73;;;20.50;82.70;;;;;;5013347;28;20176;-68
2023/06/27 03:16:45;;;;;;;4.17;2.23;;;20.50;83.30;;;;;;5013244;28;20180;-67
2023/06/27 03:19:10;;;;;;;4.63;2.67;;;20.60;82.90;;;;;;5012622;28;20949;-68
2023/06/27 03:21:36;;;;;;;3.83;2.13;;;20.60;83.30;;;;;;5012867;28;20658;-67
2023/06/27 03:24:02;;;;;;;5.70;2.20;;;20.70;82.90;;;;;;5012423;28;20269;-67
2023/06/27 03:26:28;;;;;;;2.50;2.00;;;20.60;82.80;;;;;;5013146;28;20164;-67
2023/06/27 03:28:56;;;;;;;3.70;2.30;;;20.80;82.70;;;;;;5013241;28;20572;-67
2023/06/27 03:31:22;;;;;;;3.80;2.00;;;21.00;82.70;;;;;;5027764;28;20431;-67
2023/06/27 03:33:47;;;;;;;3.53;2.50;;;20.90;81.60;;;;;;5012693;28;20422;-68
2023/06/27 03:36:13;;;;;;;3.87;2.23;;;20.90;82.00;;;;;;5012740;28;20172;-68
2023/06/27 03:38:38;;;;;;;3.37;2.27;;;20.90;82.90;;;;;;5011887;28;20553;-67
2023/06/27 03:41:04;;;;;;;3.37;2.00;;;20.80;83.00;;;;;;5014269;28;20238;-68
2023/06/27 03:43:29;;;;;;;4.47;2.27;;;20.70;83.80;;;;;;5016058;28;20570;-68
2023/06/27 03:45:55;;;;;;;5.10;2.10;;;20.80;83.60;;;;;;5016296;28;20234;-67
2023/06/27 03:48:21;;;;;;;4.60;3.20;;;20.70;84.30;;;;;;5016127;28;20196;-68
2023/06/27 03:50:46;;;;;;;3.50;2.07;;;20.60;84.00;;;;;;5018721;28;20298;-67
2023/06/27 03:53:12;;;;;;;2.67;2.07;;;20.60;84.90;;;;;;5015665;28;20277;-68
2023/06/27 03:55:40;;;;;;;3.67;2.10;;;20.30;84.10;;;;;;5016282;28;20172;-68
2023/06/27 03:58:06;;;;;;;2.70;2.00;;;20.60;85.20;;;;;;5016415;28;20206;-67
2023/06/27 04:00:32;;;;;;;4.10;2.43;;;20.50;84.30;;;;;;5016295;28;20399;-68
2023/06/27 04:02:58;;;;;;;4.20;2.10;;;20.50;83.60;;;;;;5016414;28;20465;-68
2023/06/27 04:05:23;;;;;;;5.70;2.00;;;20.60;83.40;;;;;;5016211;28;20167;-68
2023/06/27 04:07:49;;;;;;;4.40;2.07;;;20.80;83.30;;;;;;5016036;28;20172;-68
2023/06/27 04:10:14;;;;;;;3.30;2.30;;;20.80;83.00;;;;;;5015833;28;20612;-68
2023/06/27 04:12:41;;;;;;;2.90;2.10;;;20.80;83.60;;;;;;5016035;28;20168;-68
2023/06/27 04:15:07;;;;;;;3.63;1.97;;;20.80;83.10;;;;;;5015921;28;20200;-68
2023/06/27 04:17:32;;;;;;;5.00;2.33;;;20.80;82.90;;;;;;5015936;28;20412;-68
2023/06/27 04:19:58;;;;;;;8.83;2.60;;;20.90;83.00;;;;;;5015748;28;20443;-68
2023/06/27 04:22:23;;;;;;;4.03;2.13;;;20.80;82.30;;;;;;5015398;28;20196;-68
2023/06/27 04:24:49;;;;;;;6.27;2.13;;;20.50;82.40;;;;;;5015451;28;20172;-68
2023/06/27 04:27:14;;;;;;;3.40;2.13;;;20.30;83.30;;;;;;5031140;28;20589;-68
2023/06/27 04:29:40;;;;;;;3.73;2.20;;;20.40;83.60;;;;;;5015544;28;20552;-67
2023/06/27 04:32:07;;;;;;;3.77;1.90;;;20.50;83.50;;;;;;5014313;28;20218;-68
2023/06/27 04:34:36;;;;;;;3.10;1.63;;;20.50;83.80;;;;;;5015953;28;20171;-67
2023/06/27 04:37:04;;;;;;;5.10;1.97;;;20.60;83.50;;;;;;5015816;28;20497;-68
2023/06/27 04:39:30;;;;;;;5.87;2.23;;;20.50;83.90;;;;;;5014504;28;20446;-68
2023/06/27 04:41:58;;;;;;;3.10;2.00;;;20.50;83.00;;;;;;5014623;28;20439;-67
2023/06/27 04:44:24;;;;;;;3.73;2.20;;;20.50;83.20;;;;;;5013287;28;20594;-68
2023/06/27 04:46:50;;;;;;;3.83;1.80;;;20.50;83.70;;;;;;5031466;28;20504;-67
2023/06/27 04:49:15;;;;;;;6.53;2.00;;;20.50;83.30;;;;;;5035524;28;20190;-67
2023/06/27 04:51:41;;;;;;;3.13;2.17;;;20.70;82.80;;;;;;5033368;28;20575;-67
2023/06/27 04:54:07;;;;;;;4.30;2.20;;;20.70;82.40;;;;;;5018023;28;20186;-68
2023/06/27 04:56:33;;;;;;;5.73;2.47;;;20.80;82.00;;;;;;5014900;28;20172;-67
2023/06/27 04:58:59;;;;;;;4.97;1.87;;;20.90;81.90;;;;;;5015937;28;20275;-67
2023/06/27 05:01:25;;;;;;;4.30;2.20;;;20.80;82.10;;;;;;5014922;28;20423;-66
2023/06/27 05:03:52;;;;;;;4.53;2.90;;;21.00;82.10;;;;;;5014878;28;20407;-67
2023/06/27 05:06:18;;;;;;;4.53;2.07;;;21.10;81.70;;;;;;5015125;28;20176;-66
2023/06/27 05:08:44;;;;;;;3.37;2.53;;;21.20;82.80;;;;;;5014289;28;20538;-67
2023/06/27 05:11:10;;;;;;;3.47;2.70;;;21.30;81.70;;;;;;5014554;28;20199;-66
2023/06/27 05:13:35;;;;;;;3.83;2.30;;;20.90;82.80;;;;;;5014751;28;20410;-67
2023/06/27 05:16:01;;;;;;;5.27;3.17;;;20.90;82.80;;;;;;5014703;28;20246;-66
2023/06/27 05:18:27;;;;;;;3.47;2.50;;;20.50;83.40;;;;;;5014436;28;20282;-67
2023/06/27 05:20:53;;;;;;;3.87;2.60;;;20.30;83.60;;;;;;5014272;28;20199;-66
2023/06/27 05:23:20;;;;;;;7.53;1.90;;;20.50;84.10;;;;;;5013806;28;20176;-67
2023/06/27 05:25:46;;;;;;;3.37;2.20;;;20.80;83.60;;;;;;5014488;28;20434;-67
2023/06/27 05:28:12;;;;;;;4.83;2.07;;;20.90;81.70;;;;;;5014351;28;20407;-67
2023/06/27 05:30:38;;;;;;;4.97;2.13;;;20.70;82.20;;;;;;5014613;28;20219;-67
2023/06/27 05:33:04;;;;;;;5.60;2.30;;;20.70;82.90;;;;;;5014445;28;20168;-67
2023/06/27 05:35:30;;;;;;;4.70;2.37;;;20.90;82.70;;;;;;5013772;28;20782;-67
2023/06/27 05:37:56;;;;;;;3.10;2.60;;;21.00;83.10;;;;;;5012239;28;20490;-66
2023/06/27 05:40:21;;;;;;;5.97;2.80;;;21.10;82.70;;;;;;4994754;28;20181;-67
2023/06/27 05:42:47;;;;;;;5.23;2.50;;;21.00;82.50;;;;;;4993266;28;20256;-66
2023/06/27 05:45:12;;;;;;;4.50;2.80;;;21.20;83.80;;;;;;4994709;28;20646;-67
2023/06/27 05:47:38;;;;;;;5.70;2.50;;;21.30;82.60;;;;;;4994601;28;20211;-67
2023/06/27 05:50:04;;;;;;;3.23;2.33;;;21.50;82.30;;;;;;4994454;28;20172;-67
2023/06/27 05:52:30;;;;;;;5.37;2.43;;;21.50;81.10;;;;;;5031982;23;20650;-66
2023/06/27 05:54:55;;;;;;;3.27;2.03;;;21.20;83.00;;;;;;5013082;28;20398;-67
2023/06/27 05:57:22;;;;;;;6.50;2.03;;;21.30;82.60;;;;;;5013347;28;20657;-67
2023/06/27 05:59:47;;;;;;;4.00;2.30;;;21.40;81.40;;;;;;5013403;28;20285;-66
2023/06/27 06:02:13;;;;;;;4.67;2.40;;;21.60;80.90;;;;;;5013363;28;20450;-66
2023/06/27 06:04:39;;;;;;;2.67;1.80;;;21.90;80.90;;;;;;5012879;28;20165;-66
2023/06/27 06:07:04;;;;;;;4.43;2.20;;;21.70;79.90;;;;;;5013093;28;20252;-66
2023/06/27 06:09:30;;;;;;;4.03;2.37;;;21.70;79.50;;;;;;5013185;28;20530;-66
2023/06/27 06:11:57;;;;;;;3.53;2.40;;;21.60;79.00;;;;;;5013306;28;20275;-65
2023/06/27 06:14:22;;;;;;;5.17;2.50;;;21.70;79.20;;;;;;5013192;28;20972;-66
2023/06/27 06:16:48;;;;;;;6.23;2.63;;;21.70;79.60;;;;;;5012982;28;20453;-68
2023/06/27 06:19:14;;;;;;;4.07;2.53;;;21.40;81.00;;;;;;5013316;28;20305;-67
2023/06/27 06:21:40;;;;;;;4.00;2.40;;;21.20;80.60;;;;;;5013016;28;20879;-66
2023/06/27 06:24:08;;;;;;;3.77;1.97;;;21.10;81.20;;;;;;5012661;28;20184;-67
2023/06/27 06:26:35;;;;;;;2.73;2.00;;;21.10;81.30;;;;;;5012985;28;20233;-66
2023/06/27 06:29:01;;;;;;;4.70;1.90;;;21.30;79.20;;;;;;5011591;28;20419;-66
2023/06/27 06:31:26;;;;;;;7.03;2.40;;;21.30;78.10;;;;;;5013001;28;20466;-66
2023/06/27 06:33:53;;;;;;;5.03;1.97;;;21.50;77.80;;;;;;5012896;28;20413;-67
2023/06/27 06:36:18;;;;;;;3.60;2.00;;;21.50;77.30;;;;;;5012796;28;20306;-66
2023/06/27 06:38:44;;;;;;;4.23;2.27;;;21.30;77.50;;;;;;5012156;28;20538;-66
2023/06/27 06:41:10;;;;;;;6.80;2.30;;;21.30;77.90;;;;;;5012648;28;20184;-66
2023/06/27 06:43:35;;;;;;;4.33;2.40;;;21.50;78.30;;;;;;5013872;28;20172;-66
2023/06/27 06:46:01;;;;;;;4.67;1.90;;;21.20;77.50;;;;;;5012530;28;20222;-66
2023/06/27 06:48:27;;;;;;;2.90;1.80;;;21.20;78.10;;;;;;5012382;28;20608;-67
2023/06/27 06:50:53;;;;;;;3.70;2.53;;;21.20;78.20;;;;;;5012808;28;20191;-66
2023/06/27 06:53:19;;;;;;;3.83;2.30;;;21.40;78.00;;;;;;5011842;28;20211;-67
2023/06/27 06:55:45;;;;;;;6.60;2.10;;;21.50;78.10;;;;;;5012349;28;20539;-66
2023/06/27 06:58:11;;;;;;;4.43;2.47;;;21.70;77.30;;;;;;5012501;28;21052;-67
2023/06/27 07:00:36;;;;;;;2.73;1.70;;;21.50;75.80;;;;;;5012620;28;20783;-66
2023/06/27 07:03:08;;;;;;;4.20;2.17;;;21.40;75.60;;;;;;5012788;28;20627;-66
2023/06/27 07:05:35;;;;;;;5.80;2.67;;;21.20;75.90;;;;;;5012556;28;20203;-66
2023/06/27 07:08:02;;;;;;;3.20;2.07;;;21.10;76.80;;;;;;5012325;28;20893;-66
2023/06/27 07:10:27;;;;;;;4.10;2.33;;;21.30;76.70;;;;;;5012405;28;20497;-66
2023/06/27 07:12:53;;;;;;;3.27;2.03;;;21.30;77.40;;;;;;5012469;28;20506;-66
2023/06/27 07:15:18;;;;;;;4.23;2.30;;;21.60;76.30;;;;;;5015311;28;20171;-66
2023/06/27 07:17:44;;;;;;;8.40;2.17;;;22.00;76.70;;;;;;5016859;28;20298;-67
2023/06/27 07:20:10;;;;;;;5.13;2.07;;;22.00;77.20;;;;;;5016404;28;20211;-67
2023/06/27 07:22:35;;;;;;;3.60;2.10;;;21.50;78.10;;;;;;5016024;28;20251;-66
2023/06/27 07:25:01;;;;;;;4.90;2.33;;;21.60;77.70;;;;;;5015984;28;20168;-66
2023/06/27 07:27:26;;;;;;;6.40;2.77;;;21.40;78.70;;;;;;5016484;28;20179;-66
2023/06/27 07:29:52;;;;;;;3.23;2.40;;;21.70;78.60;;;;;;5016125;28;20175;-67
2023/06/27 07:32:17;;;;;;;5.17;2.60;;;22.00;78.00;;;;;;5016075;28;20220;-66
2023/06/27 07:34:43;;;;;;;3.67;2.10;;;22.40;76.70;;;;;;5015935;28;20172;-66
2023/06/27 07:37:08;;;;;;;2.90;2.30;;;22.50;75.90;;;;;;5015829;28;20661;-67
2023/06/27 07:39:35;;;;;;;5.10;2.63;;;22.00;77.30;;;;;;5015971;28;20191;-66
2023/06/27 07:42:00;;;;;;;6.10;2.63;;;21.70;78.40;;;;;;5016033;28;20267;-66
2023/06/27 07:44:26;;;;;;;5.40;2.73;;;22.10;78.40;;;;;;5015815;28;20481;-66
2023/06/27 07:46:52;;;;;;;3.23;2.47;;;22.20;77.70;;;;;;5016006;28;20171;-66
2023/06/27 07:49:17;;;;;;;5.63;2.43;;;22.60;77.40;;;;;;5015763;28;20172;-66
2023/06/27 07:51:43;;;;;;;3.70;2.63;;;22.70;75.50;;;;;;5015564;28;20223;-66
2023/06/27 07:54:09;;;;;;;4.30;2.77;;;22.70;76.00;;;;;;5015520;28;20183;-68
2023/06/27 07:56:35;;;;;;;6.40;2.53;;;22.50;76.10;;;;;;5014351;28;20179;-67
2023/06/27 07:59:02;;;;;;;3.20;2.43;;;22.60;76.80;;;;;;5015277;28;20450;-66
2023/06/27 08:01:28;;;;;;;5.60;2.53;;;23.10;76.50;;;;;;5015608;28;20247;-66
2023/06/27 08:03:53;;;;;;;5.57;2.50;;;23.10;74.80;;;;;;5015939;28;20411;-66
2023/06/27 08:06:19;;;;;;;3.97;2.77;;;23.10;74.90;;;;;;5015477;28;20160;-66
2023/06/27 08:08:45;;;;;;;8.43;2.97;;;23.30;74.20;;;;;;5015965;28;20530;-66
2023/06/27 08:11:10;;;;;;;4.20;2.53;;;23.20;74.70;;;;;;5015381;28;20188;-67
2023/06/27 08:13:41;;;;;;;3.03;2.30;;;23.10;73.60;;;;;;5015601;28;20226;-66
2023/06/27 08:16:09;;;;;;;6.07;2.60;;;23.00;74.40;;;;;;5013968;28;20742;-67
2023/06/27 08:18:35;;;;;;;3.10;2.17;;;22.90;73.80;;;;;;5015403;28;20449;-66
2023/06/27 08:21:01;;;;;;;5.60;2.30;;;22.90;74.30;;;;;;5015706;28;20941;-67
2023/06/27 08:23:27;;;;;;;6.73;2.30;;;23.00;73.50;;;;;;5014827;28;20646;-66
2023/06/27 08:25:54;;;;;;;3.30;2.30;;;23.00;73.20;;;;;;5014801;28;20399;-67
2023/06/27 08:28:20;;;;;;;5.40;2.57;;;22.80;73.70;;;;;;5014661;28;20446;-66
2023/06/27 08:30:45;;;;;;;2.97;2.47;;;23.00;75.00;;;;;;5015049;28;20403;-66
2023/06/27 08:33:11;;;;;;;3.57;2.13;;;23.00;74.20;;;;;;5015111;28;20414;-66
2023/06/27 08:35:36;;;;;;;3.30;2.60;;;22.90;74.10;;;;;;5015029;28;20206;-66
2023/06/27 08:38:03;;;;;;;4.30;2.23;;;23.10;75.20;;;;;;5014748;28;20176;-66
2023/06/27 08:40:33;;;;;;;5.67;2.80;;;23.20;74.10;;;;;;5014733;28;20184;-66
2023/06/27 08:42:58;;;;;;;3.53;3.17;;;22.50;75.30;;;;;;5014774;28;20411;-65
2023/06/27 08:45:24;;;;;;;5.10;2.93;;;22.50;75.30;;;;;;5017112;28;20486;-67
2023/06/27 08:47:49;;;;;;;4.27;2.70;;;22.80;75.20;;;;;;5015331;28;20176;-66
2023/06/27 08:50:17;;;;;;;4.80;2.70;;;23.30;74.30;;;;;;5014939;28;20172;-66
2023/06/27 08:52:44;;;;;;;4.80;3.10;;;23.80;73.50;;;;;;5013757;28;20214;-66
2023/06/27 08:55:18;;;;;;;3.00;2.50;;;24.00;72.60;;;;;;5014362;28;20406;-66
2023/06/27 08:57:46;;;;;;;4.43;2.80;;;24.20;72.40;;;;;;5014588;28;20489;-66
2023/06/27 09:00:14;;;;;;;5.67;2.77;;;24.10;72.90;;;;;;5014593;28;20456;-65
2023/06/27 09:02:42;;;;;;;3.30;2.33;;;24.10;73.70;;;;;;5014750;28;20430;-65
2023/06/27 09:05:08;;;;;;;7.10;2.17;;;24.00;72.70;;;;;;5015491;28;20922;-64
2023/06/27 09:07:34;;;;;;;3.43;2.40;;;23.70;73.60;;;;;;5013990;28;20859;-66
2023/06/27 09:10:01;;;;;;;4.30;2.60;;;23.70;73.20;;;;;;5014215;28;20524;-66
2023/06/27 09:12:28;;;;;;;7.60;2.80;;;23.40;73.20;;;;;;5014108;28;20434;-65
2023/06/27 09:14:53;;;;;;;9.53;3.57;;;23.50;73.00;;;;;;5014173;28;20407;-68
2023/06/27 09:17:19;;;;;;;5.73;3.43;;;23.60;73.30;;;;;;5014196;28;20407;-65
2023/06/27 09:19:44;;;;;;;6.77;2.33;;;23.30;72.60;;;;;;5014099;28;20666;-67
2023/06/27 09:22:10;;;;;;;4.50;2.60;;;23.10;73.10;;;;;;5013997;28;20341;-67
2023/06/27 09:24:40;;;;;;;7.73;2.87;;;23.30;73.20;;;;;;5013439;28;20202;-66
2023/06/27 09:27:07;;;;;;;3.20;2.43;;;23.10;74.60;;;;;;5014152;28;20168;-66
2023/06/27 09:29:35;;;;;;;5.10;2.20;;;23.90;74.40;;;;;;5014316;28;20780;-66
2023/06/27 09:32:08;;;;;;;8.40;2.80;;;23.90;71.80;;;;;;5014044;28;20568;-66
2023/06/27 09:34:35;;;;;;;7.33;2.77;;;23.90;72.10;;;;;;5014052;28;20880;-67
2023/06/27 09:37:02;;;;;;;5.23;2.67;;;23.90;71.80;;;;;;5013753;28;20411;-65
2023/06/27 09:39:28;;;;;;;5.20;2.87;;;23.70;73.30;;;;;;5012585;28;20474;-66
2023/06/27 09:41:54;;;;;;;5.60;2.70;;;23.50;72.60;;;;;;5014052;28;20453;-66
2023/06/27 09:44:21;;;;;;;4.73;2.40;;;23.60;72.70;;;;;;5013610;28;20403;-66
2023/06/27 09:46:49;;;;;;;5.20;2.63;;;24.10;72.90;;;;;;5013869;28;20179;-66
2023/06/27 09:49:15;;;;;;;3.43;2.50;;;24.20;72.20;;;;;;5013946;28;20804;-66
2023/06/27 09:51:44;;;;;;;2.70;2.50;;;24.10;73.00;;;;;;5013516;28;20443;-66
2023/06/27 09:54:13;;;;;;;5.43;2.27;;;23.60;72.50;;;;;;5013229;28;20419;-65
2023/06/27 09:56:39;;;;;;;4.00;2.30;;;23.50;73.30;;;;;;5013700;28;20410;-66
2023/06/27 09:59:11;;;;;;;2.60;2.40;;;23.90;72.50;;;;;;5013697;28;20434;-65
2023/06/27 10:01:40;;;;;;;3.60;2.70;;;24.00;71.20;;;;;;5013289;28;20184;-66
2023/06/27 10:04:06;;;;;;;4.33;2.70;;;23.80;71.20;;;;;;5013422;28;20415;-66
2023/06/27 10:06:33;;;;;;;3.33;2.23;;;24.20;70.80;;;;;;5013374;28;20395;-66
2023/06/27 10:08:59;;;;;;;8.47;3.03;;;24.50;70.00;;;;;;5013061;28;20398;-66
2023/06/27 10:11:26;;;;;;;4.03;2.30;;;24.80;69.10;;;;;;5012910;28;20423;-66
2023/06/27 10:13:52;;;;;;;2.87;2.53;;;25.20;68.50;;;;;;5013541;28;20509;-66
2023/06/27 10:16:18;;;;;;;3.30;2.20;;;25.40;68.20;;;;;;5013460;28;20946;-66
2023/06/27 10:18:44;;;;;;;5.60;3.13;;;25.60;68.00;;;;;;5012880;28;20662;-66
2023/06/27 10:21:11;;;;;;;4.00;2.50;;;26.00;66.90;;;;;;5013101;28;20438;-66
2023/06/27 10:23:41;;;;;;;4.37;2.50;;;25.60;65.90;;;;;;5013079;28;20184;-66
2023/06/27 10:26:09;;;;;;;4.40;2.70;;;25.00;67.70;;;;;;5012688;28;20430;-66
2023/06/27 10:28:35;;;;;;;3.53;2.50;;;24.80;67.40;;;;;;5013033;28;20515;-66
2023/06/27 10:31:04;;;;;;;3.03;2.40;;;24.60;67.60;;;;;;5013433;28;20434;-66
2023/06/27 10:33:35;;;;;;;5.43;2.40;;;24.10;67.90;;;;;;5013123;28;20547;-66
2023/06/27 10:36:05;;;;;;;5.00;2.40;;;24.20;67.90;;;;;;5013326;28;20487;-65
2023/06/27 10:38:35;;;;;;;3.83;2.30;;;24.80;67.50;;;;;;5012753;28;20451;-67
2023/06/27 10:41:05;;;;;;;3.50;2.50;;;25.20;66.10;;;;;;5011214;28;20442;-65
2023/06/27 10:43:37;;;;;;;5.00;2.60;;;25.60;65.10;;;;;;5013235;28;20411;-67
2023/06/27 10:46:11;;;;;;;3.83;2.60;;;25.50;64.90;;;;;;5012852;28;20426;-68
2023/06/27 10:49:07;;;;;;;4.97;2.13;;;24.90;66.30;;;;;;5015076;28;20472;-65
2023/06/27 10:51:43;;;;;;;2.33;2.00;;;25.20;65.80;;;;;;5004135;28;20450;-66
2023/06/27 10:54:09;;;;;;;3.50;2.30;;;25.00;66.40;;;;;;5011539;28;20457;-66
2023/06/27 10:56:39;;;;;;;3.90;2.50;;;25.10;66.30;;;;;;5012560;28;20411;-65
2023/06/27 10:59:09;;;;;;;6.27;2.67;;;25.20;65.20;;;;;;5012530;28;20183;-67
2023/06/27 11:01:40;;;;;;;3.80;2.53;;;25.20;65.10;;;;;;5012602;28;20546;-66
2023/06/27 11:04:39;;;;;;;4.10;2.00;;;24.60;66.40;;;;;;5012818;28;20454;-66
2023/06/27 11:07:07;;;;;;;3.50;2.00;;;25.30;67.20;;;;;;5012391;28;20966;-65
2023/06/27 11:09:35;;;;;;;3.10;2.50;;;25.60;64.00;;;;;;5012130;28;20759;-66
2023/06/27 11:12:14;;;;;;;3.90;2.60;;;25.90;64.10;;;;;;5012270;28;20440;-66
2023/06/27 11:14:42;;;;;;;5.17;2.40;;;25.90;63.10;;;;;;5013044;28;20524;-66
2023/06/27 11:17:08;;;;;;;5.83;2.73;;;25.70;64.10;;;;;;5012620;28;20444;-66
2023/06/27 11:19:35;;;;;;;4.77;2.07;;;25.40;65.30;;;;;;5012508;28;20458;-66
2023/06/27 11:22:01;;;;;;;4.03;2.57;;;25.70;64.80;;;;;;5012353;28;20459;-66
2023/06/27 11:24:29;;;;;;;4.50;2.60;;;25.90;65.50;;;;;;5011811;28;20440;-67
2023/06/27 11:26:55;;;;;;;5.20;2.17;;;25.70;64.20;;;;;;5012282;28;20810;-67
2023/06/27 11:29:21;;;;;;;3.00;2.07;;;25.40;64.70;;;;;;5011569;28;20415;-67
2023/06/27 11:31:48;;;;;;;3.70;2.20;;;25.10;65.00;;;;;;5011725;28;20427;-67
2023/06/27 11:34:15;;;;;;;3.23;2.60;;;24.90;65.90;;;;;;5012226;28;20180;-67
2023/06/27 11:36:40;;;;;;;4.00;2.43;;;25.00;65.20;;;;;;5011676;28;20415;-65
2023/06/27 11:39:09;;;;;;;6.63;2.27;;;24.90;65.20;;;;;;5011988;28;20467;-65
2023/06/27 11:41:41;;;;;;;4.40;2.67;;;25.20;64.90;;;;;;5011580;28;20184;-66
2023/06/27 11:44:11;;;;;;;6.20;3.20;;;25.60;64.90;;;;;;5012120;28;20387;-65
2023/06/27 11:46:54;;;;;;;3.87;2.50;;;26.10;63.60;;;;;;5012185;28;20498;-66
2023/06/27 11:49:24;;;;;;;3.00;2.40;;;26.50;61.90;;;;;;5012069;28;20403;-66
2023/06/27 11:51:57;;;;;;;3.20;2.40;;;27.20;60.30;;;;;;5026380;23;20490;-67
2023/06/27 11:54:23;;;;;;;3.50;2.07;;;27.60;59.50;;;;;;5012215;28;20415;-67
2023/06/27 11:56:50;;;;;;;4.40;2.63;;;28.40;58.70;;;;;;5012477;28;20458;-68
2023/06/27 11:59:15;;;;;;;6.63;2.33;;;28.20;57.80;;;;;;5012553;28;20965;-67
2023/06/27 12:01:45;;;;;;;5.13;2.23;;;28.30;58.00;;;;;;5013769;28;20473;-67
2023/06/27 12:04:15;;;;;;;4.63;2.33;;;27.30;59.20;;;;;;5016314;28;20255;-67
2023/06/27 12:06:46;;;;;;;5.60;2.50;;;27.10;59.80;;;;;;5016453;28;20411;-67
2023/06/27 12:09:25;;;;;;;3.83;2.40;;;27.50;58.80;;;;;;5015702;28;20391;-67
2023/06/27 12:11:58;;;;;;;2.90;2.47;;;27.70;59.00;;;;;;5015571;28;20816;-67
2023/06/27 12:14:24;;;;;;;3.70;2.40;;;27.90;58.80;;;;;;5016020;28;20387;-67
2023/06/27 12:16:50;;;;;;;5.67;2.80;;;27.70;58.30;;;;;;5016525;28;20843;-67
2023/06/27 12:19:19;;;;;;;5.63;2.37;;;26.40;59.80;;;;;;5015579;28;20579;-68
2023/06/27 12:21:45;;;;;;;3.53;2.30;;;25.90;62.20;;;;;;5015923;28;20427;-68
2023/06/27 12:24:10;;;;;;;4.30;2.27;;;26.30;60.60;;;;;;5015518;28;20403;-67
2023/06/27 12:26:36;;;;;;;3.03;2.40;;;26.20;61.60;;;;;;5015332;28;20606;-68
2023/06/27 12:29:03;;;;;;;4.07;2.10;;;26.30;61.30;;;;;;5015814;28;20666;-68
2023/06/27 12:31:30;;;;;;;4.07;2.10;;;27.00;60.20;;;;;;5015650;28;20195;-66
2023/06/27 12:33:55;;;;;;;3.40;2.60;;;27.30;59.00;;;;;;5015341;28;20399;-67
2023/06/27 12:36:23;;;;;;;3.73;2.10;;;27.90;57.90;;;;;;5015335;28;20410;-67
2023/06/27 12:38:49;;;;;;;3.43;2.30;;;27.30;58.40;;;;;;5014750;28;20196;-67
2023/06/27 12:41:19;;;;;;;4.87;2.87;;;27.00;60.10;;;;;;5015204;28;20439;-66
2023/06/27 12:43:45;;;;;;;5.97;2.17;;;27.40;58.90;;;;;;5015367;28;20399;-67
2023/06/27 12:46:11;;;;;;;3.77;2.43;;;28.20;58.30;;;;;;5017709;28;20391;-67